Time;durP1;ratioP1;P1;durP2;ratioP2;P2;SDS_P1;SDS_P2;PMS_P1;PMS_P2;Temp;Humidity;BMP_temperature;BMP_pressure;BME280_temperature;BME280_humidity;BME280_pressure;Samples;Min_cycle;Max_cycle;Signal;HPM_P1;HPM_P2
2023/10/21 00:01:41;;;;;;;11.32;2.42;;;;;;;25.25;36.71;96623.38;5053214;28;20541;-76
2023/10/21 00:04:12;;;;;;;15.10;2.88;;;;;;;25.15;37.14;96628.41;5046277;28;20174;-77
2023/10/21 00:06:40;;;;;;;11.75;2.70;;;;;;;25.04;36.69;96630.94;5070171;28;20112;-76
2023/10/21 00:09:11;;;;;;;26.45;3.17;;;;;;;25.27;35.93;96613.06;5053405;28;20488;-76
2023/10/21 00:11:39;;;;;;;16.53;2.30;;;;;;;25.41;35.88;96611.16;5069615;28;20031;-77
2023/10/21 00:14:15;;;;;;;10.43;2.83;;;;;;;25.29;36.21;96612.81;5053007;28;20040;-77
2023/10/21 00:17:03;;;;;;;8.30;1.65;;;;;;;25.45;35.32;96608.84;5069824;28;20046;-78
2023/10/21 00:19:37;;;;;;;14.23;2.60;;;;;;;25.50;35.52;96611.84;5071065;28;20044;-77
2023/10/21 00:22:03;;;;;;;10.90;2.50;;;;;;;25.56;35.31;96598.16;5061700;28;20060;-77
2023/10/21 00:24:38;;;;;;;7.55;2.65;;;;;;;25.47;35.49;96606.75;5086385;28;20074;-75
2023/10/21 00:27:26;;;;;;;8.00;2.35;;;;;;;25.32;36.22;96587.75;5070549;28;20032;-76
2023/10/21 00:29:54;;;;;;;7.70;2.72;;;;;;;25.25;36.16;96603.38;5070023;28;20146;-75
2023/10/21 00:32:22;;;;;;;7.85;2.58;;;;;;;25.35;35.79;96596.41;5069861;28;20024;-76
2023/10/21 00:35:06;;;;;;;11.40;2.40;;;;;;;25.33;35.60;96573.03;5069333;28;20104;-75
2023/10/21 00:37:36;;;;;;;18.95;2.70;;;;;;;25.30;35.93;96585.25;5069347;28;20108;-76
2023/10/21 00:40:08;;;;;;;9.88;2.08;;;;;;;25.22;36.28;96603.78;5068463;28;20031;-75
2023/10/21 00:42:48;;;;;;;8.48;2.70;;;;;;;25.23;36.00;96603.56;5069616;28;20070;-75
2023/10/21 00:45:23;;;;;;;8.80;1.98;;;;;;;25.22;35.97;96580.00;5046664;28;20032;-75
2023/10/21 00:47:52;;;;;;;8.18;2.50;;;;;;;25.19;36.52;96596.84;5068877;28;20028;-76
2023/10/21 00:50:17;;;;;;;4.00;1.50;;;;;;;25.19;36.03;96579.56;5052553;28;20090;-76
2023/10/21 00:52:51;;;;;;;9.88;2.55;;;;;;;25.25;35.98;96596.00;5069000;28;20403;-75
2023/10/21 00:55:22;;;;;;;12.05;2.92;;;;;;;25.15;36.57;96606.50;5069536;28;20024;-75
2023/10/21 00:57:56;;;;;;;10.82;2.35;;;;;;;25.11;36.63;96591.53;5052633;28;20032;-75
2023/10/21 01:00:34;;;;;;;9.13;2.10;;;;;;;25.08;36.26;96599.34;5069450;28;20090;-75
2023/10/21 01:03:04;;;;;;;9.65;2.40;;;;;;;24.99;36.81;96600.59;5085996;28;20028;-75
2023/10/21 01:05:37;;;;;;;14.10;2.90;;;;;;;24.92;36.95;96625.19;5069567;28;20028;-76
2023/10/21 01:08:05;;;;;;;24.52;3.10;;;;;;;24.87;37.33;96614.03;5070346;28;20090;-75
2023/10/21 01:10:36;;;;;;;6.80;2.40;;;;;;;24.83;37.36;96611.91;5068705;28;20029;-76
2023/10/21 01:13:06;;;;;;;4.35;2.03;;;;;;;24.75;37.79;96632.91;5068798;28;20144;-76
2023/10/21 01:15:47;;;;;;;8.60;2.63;;;;;;;24.59;38.14;96621.50;5068907;28;20416;-76
2023/10/21 01:18:13;;;;;;;10.40;2.70;;;;;;;24.50;38.06;96623.56;5085551;28;20502;-75
2023/10/21 01:20:41;;;;;;;10.68;2.22;;;;;;;24.57;38.22;96629.91;5068791;28;20054;-76
2023/10/21 01:23:40;;;;;;;5.75;1.88;;;;;;;24.58;38.22;96634.31;5068600;28;20119;-75
2023/10/21 01:26:09;;;;;;;15.43;2.53;;;;;;;24.42;38.52;96628.38;5068689;28;20032;-75
2023/10/21 01:28:40;;;;;;;11.52;2.92;;;;;;;24.33;38.83;96635.06;5068774;28;20093;-76
2023/10/21 01:31:16;;;;;;;12.30;2.78;;;;;;;24.41;38.48;96651.28;5069560;28;20036;-77
2023/10/21 01:33:44;;;;;;;18.35;2.90;;;;;;;24.34;38.82;96645.78;5068776;28;20028;-75
2023/10/21 01:36:20;;;;;;;10.85;2.60;;;;;;;24.19;39.07;96642.34;5070018;28;20059;-76
2023/10/21 01:39:10;;;;;;;6.60;2.55;;;;;;;24.21;39.20;96656.63;5070438;28;20067;-75
2023/10/21 01:41:43;;;;;;;8.93;2.42;;;;;;;24.26;39.05;96654.16;5068785;28;20134;-76
2023/10/21 01:44:17;;;;;;;4.95;2.25;;;;;;;24.18;39.23;96665.25;5068767;28;20157;-76
2023/10/21 01:46:42;;;;;;;7.90;2.25;;;;;;;24.13;39.28;96671.31;5068815;28;20043;-75
2023/10/21 01:49:13;;;;;;;9.15;2.50;;;;;;;24.05;39.55;96676.06;5068744;28;20029;-75
2023/10/21 01:51:41;;;;;;;8.40;2.17;;;;;;;24.07;39.50;96693.09;5072534;28;20577;-76
2023/10/21 01:54:11;;;;;;;7.28;2.38;;;;;;;24.03;39.67;96692.66;5073825;28;20499;-75
2023/10/21 01:56:39;;;;;;;8.55;1.88;;;;;;;24.05;39.24;96712.47;5072261;28;20036;-74
2023/10/21 01:59:22;;;;;;;6.18;2.60;;;;;;;24.19;39.03;96697.84;5073447;28;20056;-75
2023/10/21 02:01:47;;;;;;;8.93;2.45;;;;;;;24.13;39.30;96704.13;5067489;28;20035;-74
2023/10/21 02:04:18;;;;;;;10.00;2.72;;;;;;;24.06;39.49;96719.59;5072227;28;20024;-75
2023/10/21 02:06:51;;;;;;;7.13;2.97;;;;;;;23.96;39.28;96723.72;5067189;28;20036;-75
2023/10/21 02:09:31;;;;;;;8.65;2.78;;;;;;;24.08;39.14;96727.59;5072215;28;20029;-75
2023/10/21 02:12:07;;;;;;;12.57;4.07;;;;;;;24.17;38.93;96743.69;5072002;28;20067;-75
2023/10/21 02:14:37;;;;;;;17.50;3.03;;;;;;;24.10;39.09;96748.22;5073132;28;20115;-76
2023/10/21 02:17:05;;;;;;;7.03;2.70;;;;;;;24.06;39.34;96752.38;5073055;28;20028;-76
2023/10/21 02:19:33;;;;;;;13.02;2.80;;;;;;;24.17;38.94;96743.69;5071804;28;20448;-75
2023/10/21 02:22:04;;;;;;;14.15;2.63;;;;;;;24.08;39.09;96763.97;5071700;28;20088;-76
2023/10/21 02:24:36;;;;;;;7.97;2.95;;;;;;;24.13;39.05;96753.31;5071939;28;20025;-76
2023/10/21 02:27:28;;;;;;;12.13;2.40;;;;;;;24.00;39.50;96763.25;5071731;28;20487;-76
2023/10/21 02:30:01;;;;;;;9.43;3.00;;;;;;;23.91;39.27;96759.81;5054993;28;20016;-75
2023/10/21 02:32:31;;;;;;;7.45;2.13;;;;;;;24.03;39.39;96766.44;5072194;28;20020;-76
2023/10/21 02:34:59;;;;;;;13.70;2.33;;;;;;;24.05;39.24;96772.56;5071746;28;20037;-76
2023/10/21 02:37:37;;;;;;;14.55;2.22;;;;;;;24.03;39.25;96774.63;5088563;28;20028;-76
2023/10/21 02:40:21;;;;;;;6.15;3.28;;;;;;;23.97;39.20;96778.16;5071536;28;20067;-75
2023/10/21 02:43:06;;;;;;;11.65;2.70;;;;;;;23.88;39.76;96773.03;5069548;28;20032;-76
2023/10/21 02:45:41;;;;;;;10.68;3.28;;;;;;;23.80;39.70;96790.41;5070791;28;20498;-76
2023/10/21 02:48:20;;;;;;;14.82;3.17;;;;;;;23.87;39.61;96785.84;5071648;28;20464;-75
2023/10/21 02:50:50;;;;;;;11.23;2.70;;;;;;;23.87;39.68;96780.38;5070014;28;20194;-76
2023/10/21 02:53:18;;;;;;;10.73;2.28;;;;;;;23.80;39.53;96782.22;5072571;28;20052;-75
2023/10/21 02:56:06;;;;;;;9.20;1.95;;;;;;;23.78;39.62;96781.56;5071370;28;20502;-75
2023/10/21 02:58:32;;;;;;;10.80;2.72;;;;;;;23.88;39.36;96793.00;5088023;28;20119;-76
2023/10/21 03:01:04;;;;;;;18.73;5.13;;;;;;;23.96;39.26;96798.34;5070186;28;20111;-76
2023/10/21 03:03:51;;;;;;;11.40;5.40;;;;;;;24.02;39.26;96793.97;5070687;28;20031;-76
2023/10/21 03:06:41;;;;;;;5.65;2.20;;;;;;;23.95;39.25;96798.53;5071034;28;20102;-77
2023/10/21 03:09:07;;;;;;;7.60;2.58;;;;;;;24.00;39.22;96807.81;5072992;28;20035;-77
2023/10/21 03:14:41;;;;;;;8.57;2.22;;;;;;;23.97;39.40;96819.16;5070080;28;20170;-76
2023/10/21 03:17:15;;;;;;;6.93;3.20;;;;;;;23.90;39.51;96811.94;5070941;28;20463;-77
2023/10/21 03:19:43;;;;;;;10.52;2.78;;;;;;;23.96;39.30;96835.75;5070798;28;20055;-76
2023/10/21 03:22:12;;;;;;;11.63;3.15;;;;;;;23.84;39.60;96823.66;5070589;28;20140;-80
2023/10/21 03:24:47;;;;;;;3.80;1.80;;;;;;;23.78;39.73;96833.47;5071074;28;20013;-76
2023/10/21 03:27:28;;;;;;;9.23;2.00;;;;;;;23.97;39.44;96832.81;5070424;28;20577;-76
2023/10/21 03:30:07;;;;;;;5.93;2.47;;;;;;;23.95;39.77;96832.16;5070533;28;20032;-77
2023/10/21 03:32:44;;;;;;;12.20;2.58;;;;;;;24.06;38.97;96831.63;5063730;28;20064;-76
2023/10/21 03:35:29;;;;;;;9.80;1.90;;;;;;;24.09;38.97;96828.50;5071594;28;20447;-76
2023/10/21 03:37:54;;;;;;;14.50;2.17;;;;;;;24.11;39.07;96836.56;5071818;28;20031;-77
2023/10/21 03:40:22;;;;;;;12.85;3.13;;;;;;;24.13;38.92;96835.31;5069631;28;20034;-76
2023/10/21 03:42:53;;;;;;;13.32;3.28;;;;;;;24.10;39.30;96834.81;5071549;28;20028;-76
2023/10/21 03:45:22;;;;;;;6.95;1.90;;;;;;;24.00;39.30;96835.16;5071323;28;20098;-75
2023/10/21 03:47:50;;;;;;;6.78;1.92;;;;;;;23.99;39.41;96846.28;5071565;28;20131;-77
2023/10/21 03:50:18;;;;;;;5.80;2.40;;;;;;;24.00;39.56;96846.09;5071354;28;20040;-76
2023/10/21 03:52:46;;;;;;;7.70;2.53;;;;;;;23.85;39.67;96830.78;5070256;28;20029;-76
2023/10/21 03:55:19;;;;;;;3.78;2.25;;;;;;;23.82;40.03;96834.75;5086763;28;20032;-76
2023/10/21 03:57:52;;;;;;;10.20;3.17;;;;;;;23.81;39.95;96834.97;5071016;28;20062;-77
2023/10/21 04:00:38;;;;;;;5.45;2.63;;;;;;;23.80;39.83;96839.59;5071234;28;20086;-77
2023/10/21 04:03:11;;;;;;;9.02;2.38;;;;;;;23.69;40.16;96831.88;5069983;28;20480;-77
2023/10/21 04:05:48;;;;;;;7.60;2.35;;;;;;;23.77;40.21;96839.97;5070951;28;20059;-76
2023/10/21 04:08:16;;;;;;;9.52;2.38;;;;;;;23.74;39.98;96823.97;5070412;28;20492;-76
2023/10/21 04:10:46;;;;;;;14.30;2.50;;;;;;;23.82;39.92;96829.31;5069730;28;20035;-76
2023/10/21 04:13:21;;;;;;;13.48;2.13;;;;;;;23.85;39.88;96834.38;5069275;28;20032;-75
2023/10/21 04:16:03;;;;;;;4.47;2.20;;;;;;;23.81;40.09;96829.50;5085341;28;20385;-76
2023/10/21 04:18:31;;;;;;;12.68;2.35;;;;;;;23.71;40.31;96840.75;5070706;28;20102;-76
2023/10/21 04:21:14;;;;;;;7.40;2.72;;;;;;;23.59;40.12;96837.69;5069362;28;20052;-76
2023/10/21 04:23:42;;;;;;;5.20;2.45;;;;;;;23.71;40.13;96838.88;5086085;28;20086;-76
2023/10/21 04:26:10;;;;;;;7.60;2.42;;;;;;;23.69;40.13;96835.47;5069725;28;20036;-77
2023/10/21 04:29:18;;;;;;;9.90;2.90;;;;;;;23.72;39.98;96842.44;5069263;28;20077;-76
2023/10/21 04:31:52;;;;;;;8.95;2.75;;;;;;;23.54;40.55;96840.13;5070804;28;20027;-76
2023/10/21 04:34:28;;;;;;;6.28;2.30;;;;;;;23.46;40.74;96853.06;5070441;28;20534;-76
2023/10/21 04:37:03;;;;;;;6.93;2.55;;;;;;;23.48;40.68;96856.44;5070088;28;20027;-75
2023/10/21 04:39:33;;;;;;;7.65;2.92;;;;;;;23.56;40.19;96848.16;5068872;28;20034;-75
2023/10/21 04:42:09;;;;;;;9.10;2.35;;;;;;;23.51;40.53;96848.72;5069325;28;20397;-75
2023/10/21 04:44:38;;;;;;;10.13;2.17;;;;;;;23.62;40.25;96863.78;5069503;28;20032;-75
2023/10/21 04:47:06;;;;;;;5.65;2.83;;;;;;;23.64;40.24;96867.16;5069093;28;20476;-74
2023/10/21 04:49:32;;;;;;;16.67;3.22;;;;;;;23.63;40.19;96865.44;5085719;28;20029;-75
2023/10/21 04:51:58;;;;;;;13.02;2.55;;;;;;;23.59;40.31;96875.06;5068969;28;20396;-74
2023/10/21 04:54:29;;;;;;;8.30;2.90;;;;;;;23.57;40.38;96885.31;5070306;28;20039;-78
2023/10/21 04:57:12;;;;;;;12.30;2.80;;;;;;;23.51;40.59;96880.63;5070150;28;20036;-75
2023/10/21 04:59:40;;;;;;;10.15;2.28;;;;;;;23.52;40.73;96880.47;5085523;28;20066;-76
2023/10/21 05:02:11;;;;;;;11.55;2.17;;;;;;;23.59;40.40;96881.38;5069768;28;20032;-75
2023/10/21 05:05:15;;;;;;;8.27;2.20;;;;;;;23.69;40.36;96894.72;5070148;28;20024;-75
2023/10/21 05:07:40;;;;;;;10.35;2.35;;;;;;;23.65;40.75;96901.63;5070382;28;20027;-74
2023/10/21 05:10:09;;;;;;;7.82;2.55;;;;;;;23.59;40.96;96899.66;5085862;28;20040;-76
2023/10/21 05:12:39;;;;;;;6.03;2.45;;;;;;;23.58;41.10;96903.41;5068422;28;20033;-76
2023/10/21 05:15:05;;;;;;;8.07;2.63;;;;;;;23.53;41.28;96894.97;5070299;28;20253;-75
2023/10/21 05:17:33;;;;;;;9.45;2.28;;;;;;;23.64;40.82;96914.41;5070053;28;20089;-74
2023/10/21 05:20:17;;;;;;;5.53;2.28;;;;;;;23.69;40.65;96914.69;5085385;28;20168;-75
2023/10/21 05:22:50;;;;;;;10.02;2.80;;;;;;;23.78;40.75;96923.59;5085821;28;20040;-75
2023/10/21 05:25:23;;;;;;;6.82;3.00;;;;;;;23.81;40.88;96917.75;5086661;28;20048;-74
2023/10/21 05:27:53;;;;;;;7.43;2.13;;;;;;;23.87;40.62;96927.91;5072897;28;20036;-75
2023/10/21 05:30:26;;;;;;;11.55;2.75;;;;;;;23.91;40.64;96918.28;5073484;28;20173;-75
2023/10/21 05:32:53;;;;;;;8.68;2.47;;;;;;;24.34;40.01;96927.38;5073917;28;20089;-74
2023/10/21 05:35:24;;;;;;;9.48;3.15;;;;;;;25.03;39.31;96930.31;5072325;28;20129;-74
2023/10/21 05:37:53;;;;;;;6.03;2.50;;;;;;;25.63;38.04;96921.38;5072614;28;20036;-75
2023/10/21 05:40:25;;;;;;;13.30;3.03;;;;;;;26.10;37.36;96918.59;5072327;28;20086;-74
2023/10/21 05:42:50;;;;;;;7.07;3.17;;;;;;;26.30;36.92;96925.00;5073369;28;20075;-75
2023/10/21 05:45:23;;;;;;;6.32;2.35;;;;;;;26.71;36.53;96923.97;5073601;28;20047;-75
2023/10/21 05:47:55;;;;;;;9.50;2.53;;;;;;;26.97;36.19;96925.91;5089011;28;20032;-75
2023/10/21 05:50:24;;;;;;;10.18;2.70;;;;;;;27.04;36.01;96919.34;5073696;28;20033;-77
2023/10/21 05:53:04;;;;;;;10.98;2.30;;;;;;;27.41;35.16;96929.63;5072361;28;20400;-75
2023/10/21 05:55:30;;;;;;;14.63;2.92;;;;;;;27.92;34.32;96913.19;5088934;28;20467;-75
2023/10/21 05:58:04;;;;;;;8.43;2.83;;;;;;;28.26;34.23;96906.47;5072650;28;20103;-76
2023/10/21 06:00:32;;;;;;;11.70;2.70;;;;;;;28.22;34.35;96921.72;5073444;28;20119;-74
2023/10/21 06:03:08;;;;;;;7.65;2.80;;;;;;;28.49;34.09;96917.72;5072617;28;20016;-75
2023/10/21 06:05:36;;;;;;;8.38;3.40;;;;;;;28.57;33.60;96908.38;5072407;28;20480;-75
2023/10/21 06:08:10;;;;;;;14.68;3.17;;;;;;;28.79;33.52;96928.13;5072247;28;20028;-75
2023/10/21 06:10:46;;;;;;;;;;;;;;;;;;;;;
2023/10/21 06:13:30;;;;;;;9.85;2.70;;;;;;;29.01;33.13;96910.13;5072554;28;20030;-75
2023/10/21 06:15:58;;;;;;;7.45;3.58;;;;;;;28.81;33.57;96910.31;5071644;28;20416;-76
2023/10/21 06:18:34;;;;;;;11.77;3.08;;;;;;;28.96;33.18;96927.34;5072964;28;20404;-75
2023/10/21 06:20:59;;;;;;;4.13;2.17;;;;;;;29.36;32.55;96922.31;5088541;28;20083;-76
2023/10/21 06:23:28;;;;;;;12.57;3.22;;;;;;;29.44;32.61;96916.50;5088581;28;20461;-75
2023/10/21 06:26:18;;;;;;;11.23;3.85;;;;;;;29.63;32.56;96909.06;5072622;28;20108;-76
2023/10/21 06:29:05;;;;;;;9.48;2.75;;;;;;;29.80;31.96;96914.81;5071159;28;20110;-75
2023/10/21 06:31:48;;;;;;;5.85;2.20;;;;;;;29.84;32.10;96905.88;5071677;28;20035;-75
2023/10/21 06:34:14;;;;;;;6.25;2.47;;;;;;;30.05;31.43;96908.16;5055637;28;20024;-76
2023/10/21 06:36:59;;;;;;;9.70;2.28;;;;;;;29.95;31.49;96905.09;5086584;28;20028;-75
2023/10/21 06:39:27;;;;;;;6.22;2.88;;;;;;;29.94;31.53;96906.16;5072610;28;20054;-76
2023/10/21 06:42:06;;;;;;;9.60;2.30;;;;;;;30.23;30.99;96898.97;5072374;28;20517;-75
2023/10/21 06:44:32;;;;;;;13.70;3.00;;;;;;;30.72;30.41;96908.03;5071523;28;20038;-75
2023/10/21 06:47:20;;;;;;;8.25;2.92;;;;;;;30.71;30.20;96918.22;5054351;28;20028;-76
2023/10/21 06:50:00;;;;;;;10.77;2.90;;;;;;;30.94;30.32;96909.16;5072216;28;20035;-75
2023/10/21 06:52:33;;;;;;;7.60;2.67;;;;;;;31.23;30.14;96927.56;5071153;28;20031;-75
2023/10/21 06:55:04;;;;;;;6.90;2.78;;;;;;;31.37;29.50;96914.34;5087910;28;20437;-75
2023/10/21 06:57:50;;;;;;;5.95;2.40;;;;;;;31.62;29.32;96910.25;5072649;28;20027;-76
2023/10/21 07:00:18;;;;;;;10.80;3.15;;;;;;;31.96;28.94;96924.28;5087978;28;20032;-76
2023/10/21 07:02:57;;;;;;;13.35;2.85;;;;;;;31.85;29.09;96916.81;5071002;28;20559;-75
2023/10/21 07:05:27;;;;;;;9.32;2.60;;;;;;;32.30;28.71;96917.81;5071272;28;20564;-75
2023/10/21 07:07:52;;;;;;;11.95;2.90;;;;;;;33.06;28.10;96914.47;5071041;28;20054;-76
2023/10/21 07:10:31;;;;;;;8.32;2.67;;;;;;;33.04;27.85;96919.41;5072330;28;20107;-75
2023/10/21 07:13:01;;;;;;;8.85;2.10;;;;;;;33.09;27.75;96915.94;5070430;28;20036;-74
2023/10/21 07:15:43;;;;;;;11.60;2.70;;;;;;;33.03;27.86;96906.69;5070682;28;20052;-75
2023/10/21 07:18:08;;;;;;;16.80;2.50;;;;;;;33.02;27.29;96860.63;5070540;28;20549;-76
2023/10/21 07:20:41;;;;;;;16.85;2.50;;;;;;;32.42;28.45;96904.75;5070833;28;20052;-75
2023/10/21 07:23:08;;;;;;;8.35;3.08;;;;;;;33.10;27.70;96898.22;5071625;28;20039;-75
2023/10/21 07:25:54;;;;;;;14.30;2.28;;;;;;;32.74;27.42;96903.13;5071789;28;20127;-75
2023/10/21 07:28:20;;;;;;;12.57;2.42;;;;;;;32.68;27.23;96894.97;5061021;28;20037;-74
2023/10/21 07:30:48;;;;;;;10.82;2.60;;;;;;;32.43;27.54;96894.47;5071765;28;20389;-74
2023/10/21 07:33:25;;;;;;;13.82;2.30;;;;;;;32.78;27.29;96903.47;5069953;28;20553;-76
2023/10/21 07:36:19;;;;;;;14.88;2.72;;;;;;;32.94;27.33;96912.88;5053706;28;20043;-72
2023/10/21 07:38:47;;;;;;;11.52;2.40;;;;;;;33.15;26.74;96903.84;5069082;28;20217;-74
2023/10/21 07:41:23;;;;;;;7.40;2.88;;;;;;;33.20;27.29;96910.28;5071330;28;20029;-75
2023/10/21 07:43:55;;;;;;;10.65;2.38;;;;;;;33.06;26.65;96906.16;5086202;28;20016;-74
2023/10/21 07:46:21;;;;;;;9.18;2.05;;;;;;;32.66;27.23;96916.56;5070203;28;20460;-74
2023/10/21 07:48:53;;;;;;;7.68;2.20;;;;;;;32.85;26.70;96919.94;5086390;28;20039;-74
2023/10/21 07:51:31;;;;;;;;;;;;;;;33.07;27.29;96918.09;5070485;28;20066;-74
2023/10/21 07:53:58;;;;;;;10.60;2.70;;;;;;;32.87;27.27;96910.28;5053336;28;19927;-73
2023/10/21 07:56:27;;;;;;;4.82;2.13;;;;;;;33.08;27.12;96917.03;5070075;28;20016;-75
2023/10/21 07:58:55;;;;;;;9.02;2.25;;;;;;;32.74;26.82;96911.44;5071144;28;20495;-75
2023/10/21 08:01:20;;;;;;;10.48;2.97;;;;;;;32.43;27.24;96905.56;5062985;28;20031;-75
2023/10/21 08:03:49;;;;;;;6.68;1.73;;;;;;;32.33;27.42;96909.00;5069895;28;20415;-75
2023/10/21 08:06:19;;;;;;;7.95;2.35;;;;;;;32.15;27.99;96909.16;5070916;28;20036;-74
2023/10/21 08:08:47;;;;;;;8.80;2.72;;;;;;;32.43;27.78;96908.31;5069774;28;20349;-74
2023/10/21 08:11:15;;;;;;;10.43;2.72;;;;;;;33.25;26.82;96920.66;5086127;28;20513;-74
2023/10/21 08:13:45;;;;;;;13.57;2.83;;;;;;;33.67;26.84;96921.84;5069428;28;20031;-73
2023/10/21 08:16:17;;;;;;;14.43;3.03;;;;;;;34.40;26.25;96923.34;5069873;28;20043;-73
2023/10/21 08:19:27;;;;;;;8.60;2.72;;;;;;;34.61;25.81;96911.38;5070833;28;20028;-73
2023/10/21 08:21:58;;;;;;;7.63;1.95;;;;;;;35.00;25.13;96912.03;5070934;28;20044;-74
2023/10/21 08:24:24;;;;;;;5.37;2.30;;;;;;;34.81;25.45;96905.19;5070507;28;20107;-73
2023/10/21 08:26:49;;;;;;;8.60;2.60;;;;;;;34.55;25.70;96915.16;5070420;28;20353;-74
2023/10/21 08:29:20;;;;;;;6.03;2.22;;;;;;;34.66;25.45;96916.16;5070405;28;20111;-73
2023/10/21 08:31:53;;;;;;;7.85;1.92;;;;;;;34.56;25.49;96922.41;5069518;28;20428;-71
2023/10/21 08:34:22;;;;;;;9.00;2.40;;;;;;;34.66;25.60;96905.03;5070408;28;20537;-72
2023/10/21 08:36:50;;;;;;;6.38;2.55;;;;;;;34.93;25.45;96911.41;5070346;28;20157;-72
2023/10/21 08:39:20;;;;;;;5.05;2.42;;;;;;;35.06;25.45;96912.91;5085604;28;20028;-72
2023/10/21 08:41:49;;;;;;;7.85;2.63;;;;;;;35.05;25.11;96916.78;5069125;28;20016;-71
2023/10/21 08:44:18;;;;;;;6.88;2.00;;;;;;;35.67;24.66;96915.06;5069464;28;20036;-72
2023/10/21 08:46:54;;;;;;;;;;;;;;;;;;;;;
2023/10/21 08:49:28;;;;;;;6.05;2.20;;;;;;;36.29;24.35;96909.56;5065668;28;20110;-71
2023/10/21 08:51:56;;;;;;;15.45;4.28;;;;;;;36.79;24.10;96916.38;5069505;28;20369;-71
2023/10/21 08:54:25;;;;;;;10.07;2.45;;;;;;;36.88;24.02;96917.50;5068803;28;20028;-71
2023/10/21 08:57:03;;;;;;;9.52;2.13;;;;;;;37.50;23.25;96917.28;5070393;28;20519;-71
2023/10/21 08:59:31;;;;;;;6.45;2.90;;;;;;;37.41;23.19;96908.59;5069151;28;20068;-72
2023/10/21 09:02:02;;;;;;;9.90;2.63;;;;;;;37.82;23.33;96917.75;5068833;28;20468;-72
2023/10/21 09:04:32;;;;;;;12.45;2.78;;;;;;;37.36;23.24;96893.81;5086144;28;20111;-72
2023/10/21 09:06:59;;;;;;;6.50;2.95;;;;;;;36.86;23.44;96898.25;5068530;28;20488;-72
2023/10/21 09:09:33;;;;;;;13.43;2.65;;;;;;;37.10;23.51;96909.72;5070094;28;20029;-72
2023/10/21 09:12:18;;;;;;;9.00;2.20;;;;;;;37.92;22.75;96903.78;5070164;28;20032;-72
2023/10/21 09:14:56;;;;;;;10.38;2.45;;;;;;;37.63;23.13;96901.88;5061840;28;20218;-72
2023/10/21 09:17:45;;;;;;;6.68;2.50;;;;;;;37.57;23.23;96917.81;5069838;28;20131;-72
2023/10/21 09:20:34;;;;;;;6.80;2.63;;;;;;;37.12;23.36;96904.72;5068788;28;20119;-72
2023/10/21 09:23:11;;;;;;;4.82;2.47;;;;;;;37.46;22.88;96907.78;5070074;28;20029;-71
2023/10/21 09:25:48;;;;;;;11.73;2.75;;;;;;;37.99;22.45;96895.94;5068732;28;20028;-71
2023/10/21 09:28:30;;;;;;;12.05;2.90;;;;;;;38.56;22.36;96905.75;5066463;28;20024;-71
2023/10/21 09:31:07;;;;;;;7.28;2.67;;;;;;;38.22;22.70;96899.19;5068381;28;20181;-72
2023/10/21 09:33:53;;;;;;;13.63;2.60;;;;;;;37.78;22.96;96899.03;5085237;28;20421;-72
2023/10/21 09:36:24;;;;;;;7.32;2.30;;;;;;;38.05;22.54;96898.72;5068545;28;20027;-72
2023/10/21 09:39:03;;;;;;;11.68;3.58;;;;;;;38.20;22.06;96893.06;5069656;28;20078;-72
2023/10/21 09:41:31;;;;;;;11.95;2.85;;;;;;;38.50;22.16;96892.94;5068445;28;20043;-72
2023/10/21 09:44:01;;;;;;;11.15;2.95;;;;;;;38.93;21.81;96880.06;5068462;28;20093;-72
2023/10/21 09:46:34;;;;;;;7.72;1.90;;;;;;;38.52;21.43;96901.84;5068387;28;20036;-71
2023/10/21 09:49:04;;;;;;;10.95;2.47;;;;;;;37.49;22.93;96893.28;5068636;28;20024;-71
2023/10/21 09:51:38;;;;;;;13.10;2.65;;;;;;;37.41;22.62;96885.41;5068143;28;20048;-71
2023/10/21 09:54:11;;;;;;;14.73;2.58;;;;;;;38.33;22.13;96856.91;5068358;28;20483;-72
2023/10/21 09:56:51;;;;;;;6.50;2.10;;;;;;;37.12;22.41;96875.97;5068680;28;20031;-71
2023/10/21 09:59:17;;;;;;;8.27;2.03;;;;;;;37.02;22.92;96889.91;5068484;28;20032;-72
2023/10/21 10:01:50;;;;;;;13.88;3.13;;;;;;;37.53;22.67;96871.22;5068400;28;20470;-72
2023/10/21 10:04:26;;;;;;;6.85;2.58;;;;;;;36.95;22.83;96860.31;5068350;28;20029;-72
2023/10/21 10:06:59;;;;;;;14.75;2.22;;;;;;;37.48;22.86;96866.47;5048132;28;20032;-71
2023/10/21 10:09:37;;;;;;;7.57;2.10;;;;;;;37.29;22.80;96863.38;5065192;28;20504;-71
2023/10/21 10:12:20;;;;;;;6.85;2.35;;;;;;;36.72;23.42;96852.53;5070792;28;20070;-71
2023/10/21 10:14:46;;;;;;;5.10;1.83;;;;;;;37.47;22.98;96852.78;5072876;28;20055;-71
2023/10/21 10:17:50;;;;;;;9.85;2.20;;;;;;;37.84;22.71;96859.63;5072954;28;20029;-71
2023/10/21 10:20:26;;;;;;;5.90;2.10;;;;;;;38.15;22.54;96849.19;5071022;28;20103;-71
2023/10/21 10:23:04;;;;;;;5.85;2.42;;;;;;;38.08;22.47;96851.50;5071766;28;20223;-71
2023/10/21 10:25:32;;;;;;;6.85;2.28;;;;;;;37.78;22.72;96851.56;5088353;28;20055;-72
2023/10/21 10:28:27;;;;;;;7.45;2.22;;;;;;;38.64;22.38;96846.41;5071401;28;20030;-72
2023/10/21 10:31:15;;;;;;;7.05;2.15;;;;;;;38.41;22.16;96830.34;5072470;28;20454;-71
2023/10/21 10:33:50;;;;;;;15.32;2.92;;;;;;;38.06;22.16;96838.91;5088051;28;20476;-71
2023/10/21 10:36:28;;;;;;;9.65;2.58;;;;;;;37.79;22.87;96828.94;5071296;28;20051;-72
2023/10/21 10:38:57;;;;;;;8.52;2.75;;;;;;;37.59;22.96;96844.94;5087967;28;20028;-72
2023/10/21 10:41:27;;;;;;;8.02;2.67;;;;;;;38.35;22.44;96840.75;5071199;28;20384;-72
2023/10/21 10:43:56;;;;;;;11.07;2.53;;;;;;;38.97;22.18;96828.84;5072158;28;20394;-72
2023/10/21 10:46:33;;;;;;;9.60;2.50;;;;;;;39.73;21.15;96835.66;5072306;28;20032;-73
2023/10/21 10:49:10;;;;;;;11.05;3.08;;;;;;;39.21;21.88;96853.25;5086455;28;20051;-73
2023/10/21 10:52:05;;;;;;;9.68;2.50;;;;;;;38.70;21.73;96828.44;5070986;28;20108;-72
2023/10/21 10:54:37;;;;;;;11.70;2.30;;;;;;;37.94;22.48;96844.81;5054545;28;20115;-72
2023/10/21 10:57:08;;;;;;;15.48;2.75;;;;;;;37.96;22.34;96837.81;5072423;28;20024;-71
2023/10/21 10:59:40;;;;;;;11.20;2.42;;;;;;;39.15;21.90;96834.81;5070881;28;20557;-72
2023/10/21 11:02:08;;;;;;;;;;;;;;;39.98;21.10;96835.34;5072578;28;20046;-72
2023/10/21 11:04:36;;;;;;;9.90;2.33;;;;;;;39.44;20.95;96849.69;5071879;28;19941;-72
2023/10/21 11:07:03;;;;;;;12.27;2.72;;;;;;;39.54;20.07;96822.41;5071942;28;20047;-72
2023/10/21 11:09:31;;;;;;;8.02;2.13;;;;;;;39.50;19.80;96832.50;5072001;28;20040;-72
2023/10/21 11:11:59;;;;;;;17.30;2.90;;;;;;;39.42;19.98;96812.72;5071762;28;21672;-72
2023/10/21 11:14:30;;;;;;;10.10;2.28;;;;;;;39.66;18.92;96840.75;5070520;28;20028;-72
2023/10/21 11:16:56;;;;;;;15.05;2.75;;;;;;;39.80;19.17;96813.72;5072151;28;20035;-72
2023/10/21 11:19:27;;;;;;;10.18;2.92;;;;;;;40.46;18.65;96822.06;5070124;28;20052;-72
2023/10/21 11:21:53;;;;;;;12.18;2.92;;;;;;;40.13;18.90;96828.72;5070759;28;20028;-72
2023/10/21 11:24:26;;;;;;;12.55;2.60;;;;;;;40.18;18.68;96814.66;5070812;28;20392;-72
2023/10/21 11:26:55;;;;;;;11.02;2.50;;;;;;;40.58;18.56;96819.69;5069903;28;20029;-72
2023/10/21 11:29:22;;;;;;;18.73;2.60;;;;;;;40.87;18.26;96814.72;5070303;28;20472;-71
2023/10/21 11:31:52;;;;;;;15.27;3.33;;;;;;;39.35;18.60;96821.47;5070044;28;20029;-71
2023/10/21 11:34:19;;;;;;;10.57;2.53;;;;;;;39.12;19.41;96815.81;5071634;28;20023;-71
2023/10/21 11:36:48;;;;;;;18.73;3.30;;;;;;;39.66;19.24;96809.94;5069721;28;20120;-71
2023/10/21 11:39:19;;;;;;;13.05;2.58;;;;;;;39.82;18.64;96795.47;5086420;28;20024;-72
2023/10/21 11:41:51;;;;;;;10.40;2.05;;;;;;;40.10;18.64;96801.31;5086868;28;20054;-72
2023/10/21 11:44:26;;;;;;;13.80;2.55;;;;;;;39.65;18.73;96797.06;5086584;28;20032;-72
2023/10/21 11:46:56;;;;;;;10.32;2.50;;;;;;;39.02;19.37;96803.59;5069989;28;20024;-72
2023/10/21 11:49:25;;;;;;;17.85;2.78;;;;;;;39.00;18.96;96807.81;5071107;28;20103;-71
2023/10/21 11:51:55;;;;;;;19.02;3.78;;;;;;;39.09;19.19;96791.22;5070922;28;20063;-72
2023/10/21 12:05:35;;;;;;;11.07;2.42;;;;;;;37.71;19.81;96792.41;5069844;28;20055;-71
2023/10/21 12:40:29;;;;;;;10.82;2.05;;;;;;;37.81;20.06;96809.94;5070217;28;20036;-71
2023/10/21 12:42:28;;;;;;;7.78;2.47;;;;;;;38.70;19.60;96788.47;5066316;28;20470;-71
2023/10/21 12:44:57;;;;;;;17.00;2.95;;;;;;;39.34;19.15;96807.78;5069210;28;20032;-72
2023/10/21 12:47:23;;;;;;;11.23;2.72;;;;;;;39.44;18.56;96782.50;5069281;28;20028;-72